Terminal Aerodrome Forecast
Issued by NWS Paducah, KY

Home | Current Version | Previous Version | Text Only | Print | Product List | Glossary Off
Versions: 1 2 3 4 5 6 7 8 9 10 11 12 13 14 15 16 17 18 19 20 21 22 23 24 25 26 27 28 29 30 31 32

693
FTUS43 KPAH 300816 AAC
TAFPAH
TAF AMD
KPAH 300816Z 3008/3106 00000KT P6SM SCT250
     FM300900 00000KT 4SM BR SCT250
      TEMPO 3009/3012 2SM BR SCT005
     FM301200 29003KT P6SM BKN015
     FM301800 27006KT P6SM SCT030 BKN050=

USA.gov is the U.S. government's official web portal to all federal, state and local government web resources and services.